Awaji Maru — JD2988 — position and weather

sailwx.info

Track history (hours):
 
Tides and Currents Weather Stations Pressure Air Temp Water Temp Dewpoint Dewpoint Depression Visibility Wind Speed Wind Dir Waves Ship Positions

Awaji Maru

Last reported at 2017-Jan-23 04:34 UTC. Time now 2017-Jan-23 04:38 UTC.
Position N 35°28' E 139°42'.

Length 37 m; draft 3 m.

Type: Tug. MMSI: 431001074.

Date/timePositionNaut miles runAvg speedWind from/ knotsBaromVisibWave heightAir tempDewpointWater temp
2017-Jan-23 04:34N 35°28' E 139°42'0 0.0
2017-Jan-23 03:33N 35°28' E 139°42'0 0.0
2017-Jan-23 02:33N 35°28' E 139°42'2 2.1
2017-Jan-23 01:33N 35°30' E 139°43'3 2.8
2017-Jan-23 00:33N 35°31' E 139°46'2 1.7
2017-Jan-22 23:33N 35°30' E 139°48'4 3.6
2017-Jan-22 22:33N 35°30' E 139°43'4 4.0
2017-Jan-22 21:33N 35°27' E 139°40'0 0.0
2017-Jan-22 20:33N 35°27' E 139°40'0 0.0
2017-Jan-22 19:33N 35°27' E 139°40'0 0.0
2017-Jan-22 18:33N 35°27' E 139°40'0 0.0
2017-Jan-22 17:33N 35°27' E 139°40'0 0.0
2017-Jan-22 16:33N 35°27' E 139°40'0 0.0
2017-Jan-22 15:33N 35°27' E 139°40'0 0.0
2017-Jan-22 14:33N 35°27' E 139°40'0 0.0
2017-Jan-22 13:33N 35°27' E 139°40'0 0.0
2017-Jan-22 12:33N 35°27' E 139°40'0 0.0
2017-Jan-22 11:33N 35°27' E 139°40'0 0.0
2017-Jan-22 10:33N 35°27' E 139°40'0 0.0
2017-Jan-22 09:33N 35°27' E 139°40'0 0.0
2017-Jan-22 08:34N 35°27' E 139°40'0 0.0
2017-Jan-22 07:33N 35°27' E 139°40'0 0.0
2017-Jan-22 06:33N 35°27' E 139°40'0 0.0
2017-Jan-22 05:33N 35°27' E 139°40'0 0.0
2017-Jan-22 04:34N 35°27' E 139°40'0 0.0
2017-Jan-22 03:33N 35°27' E 139°40'0 0.0
2017-Jan-22 02:34N 35°27' E 139°40'0 0.0
2017-Jan-22 01:33N 35°27' E 139°40'0 0.0
2017-Jan-22 00:34N 35°27' E 139°40'0 0.0
2017-Jan-21 23:33N 35°27' E 139°40'0 0.0
2017-Jan-21 22:33N 35°27' E 139°40'0 0.0
2017-Jan-21 21:33N 35°27' E 139°40'0 0.0
2017-Jan-21 20:33N 35°27' E 139°40'0 0.0
2017-Jan-21 19:33N 35°27' E 139°40'0 0.0
2017-Jan-21 18:33N 35°27' E 139°40'0 0.0
2017-Jan-21 17:33N 35°27' E 139°40'0 0.0
2017-Jan-21 16:33N 35°27' E 139°40'0 0.0
2017-Jan-21 15:33N 35°27' E 139°40'0 0.0
2017-Jan-21 14:33N 35°27' E 139°40'0 0.0
2017-Jan-21 13:33N 35°27' E 139°40'0 0.0
2017-Jan-21 12:33N 35°27' E 139°40'0 0.0
2017-Jan-21 11:33N 35°27' E 139°40'0 0.0
2017-Jan-21 10:33N 35°27' E 139°40'0 0.0
2017-Jan-21 09:33N 35°27' E 139°40'0 0.0
2017-Jan-21 08:33N 35°27' E 139°40'0 0.0
2017-Jan-21 07:33N 35°27' E 139°40'0 0.0
2017-Jan-21 06:33N 35°27' E 139°40'0 0.0
2017-Jan-21 05:34N 35°27' E 139°40'0 0.0
2017-Jan-21 04:33N 35°27' E 139°40'0 0.0
2017-Jan-21 03:33N 35°27' E 139°40'0 0.0
2017-Jan-21 02:33N 35°27' E 139°40'0 0.0
2017-Jan-21 01:33N 35°27' E 139°40'0 0.0
2017-Jan-21 00:33N 35°27' E 139°40'0 0.0
2017-Jan-20 23:33N 35°27' E 139°40'2 2.3
2017-Jan-20 22:33N 35°28' E 139°42'2 2.1
2017-Jan-20 21:33N 35°27' E 139°44'2 1.5
2017-Jan-20 20:34N 35°27' E 139°42'1 0.5
2017-Jan-20 19:33N 35°27' E 139°41'1 0.8
2017-Jan-20 18:34N 35°26' E 139°42'2 1.9
2017-Jan-20 17:33N 35°28' E 139°41'0 0.0
2017-Jan-20 16:33N 35°28' E 139°41'0 0.0
2017-Jan-20 15:33N 35°28' E 139°41'0 0.0
2017-Jan-20 14:33N 35°28' E 139°41'0 0.0
2017-Jan-20 13:33N 35°28' E 139°41'1 1.3
2017-Jan-20 12:33N 35°27' E 139°39'4 4.0
2017-Jan-20 11:33N 35°25' E 139°43'1 1.3
2017-Jan-20 10:33N 35°26' E 139°42'2 2.1
2017-Jan-20 09:33N 35°28' E 139°42'0 0.5
2017-Jan-20 08:33N 35°27' E 139°42'0 0.0
2017-Jan-20 07:33N 35°27' E 139°42'2 2.4
2017-Jan-20 06:33N 35°25' E 139°41'2 2.0
2017-Jan-20 05:33N 35°27' E 139°39'0 0.0
2017-Jan-20 04:34N 35°27' E 139°39'0 0.0
2017-Jan-20 03:33N 35°27' E 139°39'0 0.0
2017-Jan-20 02:34N 35°27' E 139°39'0 0.0
2017-Jan-20 01:33N 35°27' E 139°39'0 0.0
2017-Jan-20 00:33N 35°27' E 139°39'0 0.0
2017-Jan-19 23:33N 35°27' E 139°39'0 0.2
2017-Jan-19 22:33N 35°27' E 139°40'0 0.0
2017-Jan-19 21:33N 35°27' E 139°40'0 0.0
2017-Jan-19 20:33N 35°27' E 139°40'0 0.0
2017-Jan-19 19:33N 35°27' E 139°40'0 0.0
2017-Jan-19 18:33N 35°27' E 139°40'0 0.0
2017-Jan-19 17:33N 35°27' E 139°40'0 0.0
2017-Jan-19 16:33N 35°27' E 139°40'0 0.0
2017-Jan-19 15:33N 35°27' E 139°40'0 0.0
2017-Jan-19 14:33N 35°27' E 139°40'0 0.0
2017-Jan-19 13:33N 35°27' E 139°40'0 0.0
2017-Jan-19 12:33N 35°27' E 139°40'0 0.0
2017-Jan-19 11:33N 35°27' E 139°40'0 0.0
2017-Jan-19 10:33N 35°27' E 139°40'0 0.0
2017-Jan-19 09:34N 35°27' E 139°40'0 0.0
2017-Jan-19 08:34N 35°27' E 139°40'0 0.0
2017-Jan-19 07:33N 35°27' E 139°40'0 0.0
2017-Jan-19 06:33N 35°27' E 139°40'0 0.0
2017-Jan-19 05:34N 35°27' E 139°40'0 0.0
2017-Jan-19 04:33N 35°27' E 139°40'1 0.9
2017-Jan-19 03:33N 35°27' E 139°41'3 3.0
2017-Jan-19 02:33N 35°24' E 139°40'3 2.7
2017-Jan-19 01:33N 35°22' E 139°42'1 1.3
2017-Jan-19 00:33N 35°22' E 139°40'0 0.0
2017-Jan-18 23:33N 35°22' E 139°40'5 4.5
2017-Jan-18 22:33N 35°27' E 139°41'1 1.0
2017-Jan-18 21:33N 35°27' E 139°42'2 1.9
2017-Jan-18 20:34N 35°27' E 139°40'0 0.0
2017-Jan-18 19:33N 35°27' E 139°40'0 0.0
2017-Jan-18 18:33N 35°27' E 139°40'0 0.0
2017-Jan-18 17:33N 35°27' E 139°40'0 0.0
2017-Jan-18 16:33N 35°27' E 139°40'0 0.0
2017-Jan-18 15:33N 35°27' E 139°40'0 0.0
2017-Jan-18 14:33N 35°27' E 139°40'0 0.0
2017-Jan-18 13:33N 35°27' E 139°40'0 0.0
2017-Jan-18 12:34N 35°27' E 139°40'0 0.0
2017-Jan-18 11:34N 35°27' E 139°40'0 0.0
2017-Jan-18 10:33N 35°27' E 139°40'0 0.0
2017-Jan-18 09:34N 35°27' E 139°40'0 0.0
2017-Jan-18 08:34N 35°27' E 139°40'3 2.6
2017-Jan-18 07:33N 35°25' E 139°42'3 2.6
2017-Jan-18 06:34N 35°25' E 139°39'2 2.2
2017-Jan-18 05:33N 35°23' E 139°40'4 4.0
2017-Jan-18 04:33N 35°27' E 139°40'0 0.0
2017-Jan-18 03:33N 35°27' E 139°40'0 0.5
2017-Jan-18 02:34N 35°27' E 139°40'2 2.2
2017-Jan-18 01:33N 35°26' E 139°42'1 0.8
2017-Jan-18 00:33N 35°26' E 139°41'2 2.2
2017-Jan-17 23:33N 35°28' E 139°40'0 0.0
2017-Jan-17 22:33N 35°28' E 139°40'1 1.0
2017-Jan-17 21:33N 35°27' E 139°41'1 1.4
2017-Jan-17 20:33N 35°27' E 139°40'0 0.0
2017-Jan-17 19:34N 35°27' E 139°40'0 0.0
2017-Jan-17 18:34N 35°27' E 139°40'0 0.0
2017-Jan-17 17:33N 35°27' E 139°40'0 0.0
2017-Jan-17 16:33N 35°27' E 139°40'0 0.0
2017-Jan-17 15:33N 35°27' E 139°40'0 0.0
2017-Jan-17 14:33N 35°27' E 139°40'0 0.0
2017-Jan-17 13:33N 35°27' E 139°40'0 0.0
2017-Jan-17 12:33N 35°27' E 139°40'0 0.0
2017-Jan-17 11:33N 35°27' E 139°40'2 1.8
2017-Jan-17 10:34N 35°27' E 139°42'1 0.6
2017-Jan-17 09:33N 35°27' E 139°41'1 0.9
2017-Jan-17 08:33N 35°27' E 139°42'1 0.5
2017-Jan-17 07:33N 35°27' E 139°42'4 4.2
2017-Jan-17 06:34N 35°30' E 139°46'4 3.7
2017-Jan-17 05:34N 35°27' E 139°44'2 2.3
2017-Jan-17 04:33N 35°27' E 139°41'1 0.8
2017-Jan-17 03:33N 35°27' E 139°42'0 0.0
2017-Jan-17 02:33N 35°27' E 139°42'4 3.7
2017-Jan-17 01:33N 35°30' E 139°45'0 0.5
2017-Jan-17 00:33N 35°30' E 139°45'5 5.3
2017-Jan-16 23:33N 35°27' E 139°40'1 1.2
2017-Jan-16 22:33N 35°26' E 139°42'2 1.9
2017-Jan-16 21:33N 35°27' E 139°40'0 0.0
2017-Jan-16 20:33N 35°27' E 139°40'0 0.0
2017-Jan-16 19:33N 35°27' E 139°40'0 0.0
2017-Jan-16 18:34N 35°27' E 139°40'0 0.0
2017-Jan-16 17:34N 35°27' E 139°40'0 0.0
2017-Jan-16 16:33N 35°27' E 139°40'0 0.0
2017-Jan-16 15:33N 35°27' E 139°40'0 0.0
2017-Jan-16 14:33N 35°27' E 139°40'0 0.0
2017-Jan-16 13:33N 35°27' E 139°40'0 0.0
2017-Jan-16 12:33N 35°27' E 139°40'0 0.0
2017-Jan-16 11:33N 35°27' E 139°40'0 0.0
2017-Jan-16 10:34N 35°27' E 139°40'0 0.0
2017-Jan-16 09:33N 35°27' E 139°40'0 0.0
2017-Jan-16 08:33N 35°27' E 139°40'0 0.1
2017-Jan-16 07:33N 35°27' E 139°40'2 2.5
2017-Jan-16 06:33N 35°25' E 139°39'2 1.9
2017-Jan-16 05:33N 35°23' E 139°41'4 4.1
2017-Jan-16 04:33N 35°27' E 139°40'2 2.2
2017-Jan-16 03:33N 35°26' E 139°42'0 0.0
2017-Jan-16 02:33N 35°26' E 139°42'0 0.0
2017-Jan-16 01:33N 35°26' E 139°42'0 0.0
2017-Jan-16 00:33N 35°26' E 139°42'0 0.0
2017-Jan-15 23:33N 35°26' E 139°42'1 0.7
2017-Jan-15 22:33N 35°25' E 139°41'1 0.7
2017-Jan-15 21:33N 35°25' E 139°41'2 2.5
2017-Jan-15 20:34N 35°27' E 139°40'0 0.0
2017-Jan-15 19:33N 35°27' E 139°40'0 0.0
2017-Jan-15 18:33N 35°27' E 139°40'0 0.0
2017-Jan-15 17:33N 35°27' E 139°40'0 0.0
2017-Jan-15 16:33N 35°27' E 139°40'0 0.0
2017-Jan-15 15:33N 35°27' E 139°40'0 0.0
2017-Jan-15 14:33N 35°27' E 139°40'0 0.0
2017-Jan-15 13:33N 35°27' E 139°40'0 0.0
2017-Jan-15 12:33N 35°27' E 139°40'0 0.0
2017-Jan-15 11:33N 35°27' E 139°40'0 0.0
2017-Jan-15 10:33N 35°27' E 139°40'0 0.0
2017-Jan-15 09:33N 35°27' E 139°40'0 0.4
2017-Jan-15 08:33N 35°27' E 139°40'3 3.2
2017-Jan-15 07:34N 35°24' E 139°41'3 3.3
2017-Jan-15 06:33N 35°27' E 139°40'0 0.4
2017-Jan-15 05:33N 35°27' E 139°39'1 0.6
2017-Jan-15 04:33N 35°27' E 139°40'4 3.6
2017-Jan-15 03:33N 35°28' E 139°44'1 1.2
2017-Jan-15 02:33N 35°27' E 139°44'1 1.1
2017-Jan-15 01:34N 35°28' E 139°44'0 0.0
2017-Jan-15 00:33N 35°28' E 139°44'0 0.0
2017-Jan-14 23:33N 35°28' E 139°44'0 0.0
2017-Jan-14 22:34N 35°28' E 139°44'0 0.3
2017-Jan-14 21:33N 35°28' E 139°44'4 4.1
2017-Jan-14 20:33N 35°27' E 139°40'0 0.0
2017-Jan-14 19:33N 35°27' E 139°40'0 0.0
2017-Jan-14 18:33N 35°27' E 139°40'0 0.0
2017-Jan-14 17:33N 35°27' E 139°40'0 0.0
2017-Jan-14 16:33N 35°27' E 139°40'0 0.0
2017-Jan-14 15:33N 35°27' E 139°40'0 0.0
2017-Jan-14 14:33N 35°27' E 139°40'0 0.0
2017-Jan-14 13:33N 35°27' E 139°40'0 0.0
2017-Jan-14 12:33N 35°27' E 139°40'0 0.0
2017-Jan-14 11:34N 35°27' E 139°40'0 0.0
2017-Jan-14 10:33N 35°27' E 139°40'2 1.7
2017-Jan-14 09:33N 35°28' E 139°41'3 2.7
2017-Jan-14 08:33N 35°27' E 139°45'2 1.5
2017-Jan-14 07:33N 35°28' E 139°44'0 0.0
2017-Jan-14 06:33N 35°28' E 139°44'2 2.5
2017-Jan-14 05:33N 35°30' E 139°45'2 2.0
2017-Jan-14 04:34N 35°29' E 139°47'0 0.0
2017-Jan-14 03:34N 35°29' E 139°47'7 1.6
2017-Jan-13 23:33N 35°27' E 139°40'0 0.0
2017-Jan-13 22:34N 35°27' E 139°40'0 0.0
2017-Jan-13 21:33N 35°27' E 139°40'0 0.0
2017-Jan-13 20:33N 35°27' E 139°40'0 0.0
2017-Jan-13 19:33N 35°27' E 139°40'0 0.0
2017-Jan-13 18:33N 35°27' E 139°40'0 0.0
2017-Jan-13 17:33N 35°27' E 139°40'0 0.0
2017-Jan-13 16:34N 35°27' E 139°40'0 0.0
2017-Jan-13 15:34N 35°27' E 139°40'0 0.0
2017-Jan-13 14:33N 35°27' E 139°40'0 0.0
2017-Jan-13 13:33N 35°27' E 139°40'0 0.0
2017-Jan-13 12:33N 35°27' E 139°40'0 0.0
2017-Jan-13 11:33N 35°27' E 139°40'0 0.0
2017-Jan-13 10:33N 35°27' E 139°40'0 0.0
2017-Jan-13 09:33N 35°27' E 139°40'0 0.0
2017-Jan-13 08:33N 35°27' E 139°40'0 0.0
2017-Jan-13 07:33N 35°27' E 139°40'0 0.0
2017-Jan-13 06:33N 35°27' E 139°40'0 0.0
2017-Jan-13 05:33N 35°27' E 139°40'  
Track history (hours):
 
Tides and Currents Weather Stations Pressure Air Temp Water Temp Dewpoint Dewpoint Depression Visibility Wind Speed Wind Dir Waves Ship Positions

Awaji Maru

Last reported at 2017-Jan-23 04:34 UTC. Time now 2017-Jan-23 04:38 UTC.
Position N 35°28' E 139°42'.

Length 37 m; draft 3 m.

Type: Tug. MMSI: 431001074.

Date/timePositionNaut miles runAvg speedWind from/ knotsBaromVisibWave heightAir tempDewpointWater temp
2017-Jan-23 04:34N 35°28' E 139°42'0 0.0
2017-Jan-23 03:33N 35°28' E 139°42'0 0.0
2017-Jan-23 02:33N 35°28' E 139°42'2 2.1
2017-Jan-23 01:33N 35°30' E 139°43'3 2.8
2017-Jan-23 00:33N 35°31' E 139°46'2 1.7
2017-Jan-22 23:33N 35°30' E 139°48'4 3.6
2017-Jan-22 22:33N 35°30' E 139°43'4 4.0
2017-Jan-22 21:33N 35°27' E 139°40'0 0.0
2017-Jan-22 20:33N 35°27' E 139°40'0 0.0
2017-Jan-22 19:33N 35°27' E 139°40'0 0.0
2017-Jan-22 18:33N 35°27' E 139°40'0 0.0
2017-Jan-22 17:33N 35°27' E 139°40'0 0.0
2017-Jan-22 16:33N 35°27' E 139°40'0 0.0
2017-Jan-22 15:33N 35°27' E 139°40'0 0.0
2017-Jan-22 14:33N 35°27' E 139°40'0 0.0
2017-Jan-22 13:33N 35°27' E 139°40'0 0.0
2017-Jan-22 12:33N 35°27' E 139°40'0 0.0
2017-Jan-22 11:33N 35°27' E 139°40'0 0.0
2017-Jan-22 10:33N 35°27' E 139°40'0 0.0
2017-Jan-22 09:33N 35°27' E 139°40'0 0.0
2017-Jan-22 08:34N 35°27' E 139°40'0 0.0
2017-Jan-22 07:33N 35°27' E 139°40'0 0.0
2017-Jan-22 06:33N 35°27' E 139°40'0 0.0
2017-Jan-22 05:33N 35°27' E 139°40'0 0.0
2017-Jan-22 04:34N 35°27' E 139°40'0 0.0
2017-Jan-22 03:33N 35°27' E 139°40'0 0.0
2017-Jan-22 02:34N 35°27' E 139°40'0 0.0
2017-Jan-22 01:33N 35°27' E 139°40'0 0.0
2017-Jan-22 00:34N 35°27' E 139°40'0 0.0
2017-Jan-21 23:33N 35°27' E 139°40'0 0.0
2017-Jan-21 22:33N 35°27' E 139°40'0 0.0
2017-Jan-21 21:33N 35°27' E 139°40'0 0.0
2017-Jan-21 20:33N 35°27' E 139°40'0 0.0
2017-Jan-21 19:33N 35°27' E 139°40'0 0.0
2017-Jan-21 18:33N 35°27' E 139°40'0 0.0
2017-Jan-21 17:33N 35°27' E 139°40'0 0.0
2017-Jan-21 16:33N 35°27' E 139°40'0 0.0
2017-Jan-21 15:33N 35°27' E 139°40'0 0.0
2017-Jan-21 14:33N 35°27' E 139°40'0 0.0
2017-Jan-21 13:33N 35°27' E 139°40'0 0.0
2017-Jan-21 12:33N 35°27' E 139°40'0 0.0
2017-Jan-21 11:33N 35°27' E 139°40'0 0.0
2017-Jan-21 10:33N 35°27' E 139°40'0 0.0
2017-Jan-21 09:33N 35°27' E 139°40'0 0.0
2017-Jan-21 08:33N 35°27' E 139°40'0 0.0
2017-Jan-21 07:33N 35°27' E 139°40'0 0.0
2017-Jan-21 06:33N 35°27' E 139°40'0 0.0
2017-Jan-21 05:34N 35°27' E 139°40'0 0.0
2017-Jan-21 04:33N 35°27' E 139°40'0 0.0
2017-Jan-21 03:33N 35°27' E 139°40'0 0.0
2017-Jan-21 02:33N 35°27' E 139°40'0 0.0
2017-Jan-21 01:33N 35°27' E 139°40'0 0.0
2017-Jan-21 00:33N 35°27' E 139°40'0 0.0
2017-Jan-20 23:33N 35°27' E 139°40'2 2.3
2017-Jan-20 22:33N 35°28' E 139°42'2 2.1
2017-Jan-20 21:33N 35°27' E 139°44'2 1.5
2017-Jan-20 20:34N 35°27' E 139°42'1 0.5
2017-Jan-20 19:33N 35°27' E 139°41'1 0.8
2017-Jan-20 18:34N 35°26' E 139°42'2 1.9
2017-Jan-20 17:33N 35°28' E 139°41'0 0.0
2017-Jan-20 16:33N 35°28' E 139°41'0 0.0
2017-Jan-20 15:33N 35°28' E 139°41'0 0.0
2017-Jan-20 14:33N 35°28' E 139°41'0 0.0
2017-Jan-20 13:33N 35°28' E 139°41'1 1.3
2017-Jan-20 12:33N 35°27' E 139°39'4 4.0
2017-Jan-20 11:33N 35°25' E 139°43'1 1.3
2017-Jan-20 10:33N 35°26' E 139°42'2 2.1
2017-Jan-20 09:33N 35°28' E 139°42'0 0.5
2017-Jan-20 08:33N 35°27' E 139°42'0 0.0
2017-Jan-20 07:33N 35°27' E 139°42'2 2.4
2017-Jan-20 06:33N 35°25' E 139°41'2 2.0
2017-Jan-20 05:33N 35°27' E 139°39'0 0.0
2017-Jan-20 04:34N 35°27' E 139°39'0 0.0
2017-Jan-20 03:33N 35°27' E 139°39'0 0.0
2017-Jan-20 02:34N 35°27' E 139°39'0 0.0
2017-Jan-20 01:33N 35°27' E 139°39'0 0.0
2017-Jan-20 00:33N 35°27' E 139°39'0 0.0
2017-Jan-19 23:33N 35°27' E 139°39'0 0.2
2017-Jan-19 22:33N 35°27' E 139°40'0 0.0
2017-Jan-19 21:33N 35°27' E 139°40'0 0.0
2017-Jan-19 20:33N 35°27' E 139°40'0 0.0
2017-Jan-19 19:33N 35°27' E 139°40'0 0.0
2017-Jan-19 18:33N 35°27' E 139°40'0 0.0
2017-Jan-19 17:33N 35°27' E 139°40'0 0.0
2017-Jan-19 16:33N 35°27' E 139°40'0 0.0
2017-Jan-19 15:33N 35°27' E 139°40'0 0.0
2017-Jan-19 14:33N 35°27' E 139°40'0 0.0
2017-Jan-19 13:33N 35°27' E 139°40'0 0.0
2017-Jan-19 12:33N 35°27' E 139°40'0 0.0
2017-Jan-19 11:33N 35°27' E 139°40'0 0.0
2017-Jan-19 10:33N 35°27' E 139°40'0 0.0
2017-Jan-19 09:34N 35°27' E 139°40'0 0.0
2017-Jan-19 08:34N 35°27' E 139°40'0 0.0
2017-Jan-19 07:33N 35°27' E 139°40'0 0.0
2017-Jan-19 06:33N 35°27' E 139°40'0 0.0
2017-Jan-19 05:34N 35°27' E 139°40'0 0.0
2017-Jan-19 04:33N 35°27' E 139°40'1 0.9
2017-Jan-19 03:33N 35°27' E 139°41'3 3.0
2017-Jan-19 02:33N 35°24' E 139°40'3 2.7
2017-Jan-19 01:33N 35°22' E 139°42'1 1.3
2017-Jan-19 00:33N 35°22' E 139°40'0 0.0
2017-Jan-18 23:33N 35°22' E 139°40'5 4.5
2017-Jan-18 22:33N 35°27' E 139°41'1 1.0
2017-Jan-18 21:33N 35°27' E 139°42'2 1.9
2017-Jan-18 20:34N 35°27' E 139°40'0 0.0
2017-Jan-18 19:33N 35°27' E 139°40'0 0.0
2017-Jan-18 18:33N 35°27' E 139°40'0 0.0
2017-Jan-18 17:33N 35°27' E 139°40'0 0.0
2017-Jan-18 16:33N 35°27' E 139°40'0 0.0
2017-Jan-18 15:33N 35°27' E 139°40'0 0.0
2017-Jan-18 14:33N 35°27' E 139°40'0 0.0
2017-Jan-18 13:33N 35°27' E 139°40'0 0.0
2017-Jan-18 12:34N 35°27' E 139°40'0 0.0
2017-Jan-18 11:34N 35°27' E 139°40'0 0.0
2017-Jan-18 10:33N 35°27' E 139°40'0 0.0
2017-Jan-18 09:34N 35°27' E 139°40'0 0.0
2017-Jan-18 08:34N 35°27' E 139°40'3 2.6
2017-Jan-18 07:33N 35°25' E 139°42'3 2.6
2017-Jan-18 06:34N 35°25' E 139°39'2 2.2
2017-Jan-18 05:33N 35°23' E 139°40'4 4.0
2017-Jan-18 04:33N 35°27' E 139°40'0 0.0
2017-Jan-18 03:33N 35°27' E 139°40'0 0.5
2017-Jan-18 02:34N 35°27' E 139°40'2 2.2
2017-Jan-18 01:33N 35°26' E 139°42'1 0.8
2017-Jan-18 00:33N 35°26' E 139°41'2 2.2
2017-Jan-17 23:33N 35°28' E 139°40'0 0.0
2017-Jan-17 22:33N 35°28' E 139°40'1 1.0
2017-Jan-17 21:33N 35°27' E 139°41'1 1.4
2017-Jan-17 20:33N 35°27' E 139°40'0 0.0
2017-Jan-17 19:34N 35°27' E 139°40'0 0.0
2017-Jan-17 18:34N 35°27' E 139°40'0 0.0
2017-Jan-17 17:33N 35°27' E 139°40'0 0.0
2017-Jan-17 16:33N 35°27' E 139°40'0 0.0
2017-Jan-17 15:33N 35°27' E 139°40'0 0.0
2017-Jan-17 14:33N 35°27' E 139°40'0 0.0
2017-Jan-17 13:33N 35°27' E 139°40'0 0.0
2017-Jan-17 12:33N 35°27' E 139°40'0 0.0
2017-Jan-17 11:33N 35°27' E 139°40'2 1.8
2017-Jan-17 10:34N 35°27' E 139°42'1 0.6
2017-Jan-17 09:33N 35°27' E 139°41'1 0.9
2017-Jan-17 08:33N 35°27' E 139°42'1 0.5
2017-Jan-17 07:33N 35°27' E 139°42'4 4.2
2017-Jan-17 06:34N 35°30' E 139°46'4 3.7
2017-Jan-17 05:34N 35°27' E 139°44'2 2.3
2017-Jan-17 04:33N 35°27' E 139°41'1 0.8
2017-Jan-17 03:33N 35°27' E 139°42'0 0.0
2017-Jan-17 02:33N 35°27' E 139°42'4 3.7
2017-Jan-17 01:33N 35°30' E 139°45'0 0.5
2017-Jan-17 00:33N 35°30' E 139°45'5 5.3
2017-Jan-16 23:33N 35°27' E 139°40'1 1.2
2017-Jan-16 22:33N 35°26' E 139°42'2 1.9
2017-Jan-16 21:33N 35°27' E 139°40'0 0.0
2017-Jan-16 20:33N 35°27' E 139°40'0 0.0
2017-Jan-16 19:33N 35°27' E 139°40'0 0.0
2017-Jan-16 18:34N 35°27' E 139°40'0 0.0
2017-Jan-16 17:34N 35°27' E 139°40'0 0.0
2017-Jan-16 16:33N 35°27' E 139°40'0 0.0
2017-Jan-16 15:33N 35°27' E 139°40'0 0.0
2017-Jan-16 14:33N 35°27' E 139°40'0 0.0
2017-Jan-16 13:33N 35°27' E 139°40'0 0.0
2017-Jan-16 12:33N 35°27' E 139°40'0 0.0
2017-Jan-16 11:33N 35°27' E 139°40'0 0.0
2017-Jan-16 10:34N 35°27' E 139°40'0 0.0
2017-Jan-16 09:33N 35°27' E 139°40'0 0.0
2017-Jan-16 08:33N 35°27' E 139°40'0 0.1
2017-Jan-16 07:33N 35°27' E 139°40'2 2.5
2017-Jan-16 06:33N 35°25' E 139°39'2 1.9
2017-Jan-16 05:33N 35°23' E 139°41'4 4.1
2017-Jan-16 04:33N 35°27' E 139°40'2 2.2
2017-Jan-16 03:33N 35°26' E 139°42'0 0.0
2017-Jan-16 02:33N 35°26' E 139°42'0 0.0
2017-Jan-16 01:33N 35°26' E 139°42'0 0.0
2017-Jan-16 00:33N 35°26' E 139°42'0 0.0
2017-Jan-15 23:33N 35°26' E 139°42'1 0.7
2017-Jan-15 22:33N 35°25' E 139°41'1 0.7
2017-Jan-15 21:33N 35°25' E 139°41'2 2.5
2017-Jan-15 20:34N 35°27' E 139°40'0 0.0
2017-Jan-15 19:33N 35°27' E 139°40'0 0.0
2017-Jan-15 18:33N 35°27' E 139°40'0 0.0
2017-Jan-15 17:33N 35°27' E 139°40'0 0.0
2017-Jan-15 16:33N 35°27' E 139°40'0 0.0
2017-Jan-15 15:33N 35°27' E 139°40'0 0.0
2017-Jan-15 14:33N 35°27' E 139°40'0 0.0
2017-Jan-15 13:33N 35°27' E 139°40'0 0.0
2017-Jan-15 12:33N 35°27' E 139°40'0 0.0
2017-Jan-15 11:33N 35°27' E 139°40'0 0.0
2017-Jan-15 10:33N 35°27' E 139°40'0 0.0
2017-Jan-15 09:33N 35°27' E 139°40'0 0.4
2017-Jan-15 08:33N 35°27' E 139°40'3 3.2
2017-Jan-15 07:34N 35°24' E 139°41'3 3.3
2017-Jan-15 06:33N 35°27' E 139°40'0 0.4
2017-Jan-15 05:33N 35°27' E 139°39'1 0.6
2017-Jan-15 04:33N 35°27' E 139°40'4 3.6
2017-Jan-15 03:33N 35°28' E 139°44'1 1.2
2017-Jan-15 02:33N 35°27' E 139°44'1 1.1
2017-Jan-15 01:34N 35°28' E 139°44'0 0.0
2017-Jan-15 00:33N 35°28' E 139°44'0 0.0
2017-Jan-14 23:33N 35°28' E 139°44'0 0.0
2017-Jan-14 22:34N 35°28' E 139°44'0 0.3
2017-Jan-14 21:33N 35°28' E 139°44'4 4.1
2017-Jan-14 20:33N 35°27' E 139°40'0 0.0
2017-Jan-14 19:33N 35°27' E 139°40'0 0.0
2017-Jan-14 18:33N 35°27' E 139°40'0 0.0
2017-Jan-14 17:33N 35°27' E 139°40'0 0.0
2017-Jan-14 16:33N 35°27' E 139°40'0 0.0
2017-Jan-14 15:33N 35°27' E 139°40'0 0.0
2017-Jan-14 14:33N 35°27' E 139°40'0 0.0
2017-Jan-14 13:33N 35°27' E 139°40'0 0.0
2017-Jan-14 12:33N 35°27' E 139°40'0 0.0
2017-Jan-14 11:34N 35°27' E 139°40'0 0.0
2017-Jan-14 10:33N 35°27' E 139°40'2 1.7
2017-Jan-14 09:33N 35°28' E 139°41'3 2.7
2017-Jan-14 08:33N 35°27' E 139°45'2 1.5
2017-Jan-14 07:33N 35°28' E 139°44'0 0.0
2017-Jan-14 06:33N 35°28' E 139°44'2 2.5
2017-Jan-14 05:33N 35°30' E 139°45'2 2.0
2017-Jan-14 04:34N 35°29' E 139°47'0 0.0
2017-Jan-14 03:34N 35°29' E 139°47'7 1.6
2017-Jan-13 23:33N 35°27' E 139°40'0 0.0
2017-Jan-13 22:34N 35°27' E 139°40'0 0.0
2017-Jan-13 21:33N 35°27' E 139°40'0 0.0
2017-Jan-13 20:33N 35°27' E 139°40'0 0.0
2017-Jan-13 19:33N 35°27' E 139°40'0 0.0
2017-Jan-13 18:33N 35°27' E 139°40'0 0.0
2017-Jan-13 17:33N 35°27' E 139°40'0 0.0
2017-Jan-13 16:34N 35°27' E 139°40'0 0.0
2017-Jan-13 15:34N 35°27' E 139°40'0 0.0
2017-Jan-13 14:33N 35°27' E 139°40'0 0.0
2017-Jan-13 13:33N 35°27' E 139°40'0 0.0
2017-Jan-13 12:33N 35°27' E 139°40'0 0.0
2017-Jan-13 11:33N 35°27' E 139°40'0 0.0
2017-Jan-13 10:33N 35°27' E 139°40'0 0.0
2017-Jan-13 09:33N 35°27' E 139°40'0 0.0
2017-Jan-13 08:33N 35°27' E 139°40'0 0.0
2017-Jan-13 07:33N 35°27' E 139°40'0 0.0
2017-Jan-13 06:33N 35°27' E 139°40'0 0.0
2017-Jan-13 05:33N 35°27' E 139°40'  

Dump ship's entire track history